createdAt,value
2022-11-18T00:00:04.480Z,988.1
2022-11-18T00:01:04.815Z,988.2
2022-11-18T00:02:04.592Z,988.1
2022-11-18T00:03:04.520Z,988.1
2022-11-18T00:04:04.503Z,988.1
2022-11-18T00:05:04.546Z,988.1
2022-11-18T00:06:04.476Z,988.1
2022-11-18T00:07:04.556Z,988.1
2022-11-18T00:08:04.548Z,988.1
2022-11-18T00:09:04.521Z,988.1
2022-11-18T00:10:04.493Z,988.1
2022-11-18T00:11:04.547Z,988.1
2022-11-18T00:12:04.495Z,988.2
2022-11-18T00:13:04.537Z,988.1
2022-11-18T00:14:04.488Z,988.1
2022-11-18T00:15:04.504Z,988.1
2022-11-18T00:16:04.495Z,988.1
2022-11-18T00:17:04.541Z,988.1
2022-11-18T00:18:04.492Z,988.1
2022-11-18T00:19:04.524Z,988.0
2022-11-18T00:20:04.514Z,988.1
2022-11-18T00:21:05.425Z,988.1
2022-11-18T00:22:04.511Z,988.1
2022-11-18T00:23:04.551Z,988.1
2022-11-18T00:24:04.505Z,988.0
2022-11-18T00:25:04.567Z,988.1
2022-11-18T00:26:04.482Z,988.1
2022-11-18T00:27:04.540Z,988.0
2022-11-18T00:28:04.494Z,988.0
2022-11-18T00:29:04.555Z,988.1
2022-11-18T00:30:04.499Z,988.1
2022-11-18T00:31:04.561Z,988.1
2022-11-18T00:32:04.492Z,988.1
2022-11-18T00:33:04.538Z,988.1
2022-11-18T00:34:04.495Z,988.0
2022-11-18T00:35:04.604Z,988.0
2022-11-18T00:36:04.497Z,988.1
2022-11-18T00:37:04.520Z,988.0
2022-11-18T00:38:04.520Z,988.1
2022-11-18T00:39:04.539Z,988.0
2022-11-18T00:40:04.498Z,988.1
2022-11-18T00:41:04.590Z,988.0
2022-11-18T00:42:04.504Z,988.1
2022-11-18T00:43:04.547Z,988.1
2022-11-18T00:44:09.330Z,988.1
2022-11-18T00:45:04.653Z,988.1
2022-11-18T00:46:04.504Z,988.1
2022-11-18T00:47:04.685Z,988.1
2022-11-18T00:48:04.584Z,988.1
2022-11-18T00:49:04.524Z,988.1
2022-11-18T00:50:04.516Z,988.1
2022-11-18T00:51:04.537Z,988.1
2022-11-18T00:52:04.508Z,988.1
2022-11-18T00:53:04.559Z,988.1
2022-11-18T00:54:04.512Z,988.1
2022-11-18T00:55:04.546Z,988.1
2022-11-18T00:56:04.529Z,988.0
2022-11-18T00:57:04.537Z,988.0
2022-11-18T00:58:04.496Z,988.0
2022-11-18T00:59:04.544Z,988.0
2022-11-18T01:01:38.514Z,988.0
2022-11-18T01:02:04.158Z,988.1
2022-11-18T01:03:04.129Z,988.1
2022-11-18T01:04:04.148Z,988.0
2022-11-18T01:05:04.126Z,988.0
2022-11-18T01:06:04.163Z,988.0
2022-11-18T01:07:04.229Z,988.0
2022-11-18T01:08:04.202Z,988.0
2022-11-18T01:09:04.133Z,988.0
2022-11-18T01:10:04.179Z,988.1
2022-11-18T01:11:04.121Z,988.1
2022-11-18T01:12:04.162Z,988.1
2022-11-18T01:13:04.159Z,988.1
2022-11-18T01:14:04.152Z,988.0
2022-11-18T01:15:04.130Z,988.0
2022-11-18T01:16:04.186Z,988.1
2022-11-18T01:17:04.123Z,988.1
2022-11-18T01:18:04.139Z,988.1
2022-11-18T01:19:04.168Z,988.1
2022-11-18T01:20:04.181Z,988.1
2022-11-18T01:21:04.128Z,988.2
2022-11-18T01:22:04.163Z,988.2
2022-11-18T01:23:04.131Z,988.2
2022-11-18T01:24:04.158Z,988.2
2022-11-18T01:25:10.991Z,988.2
2022-11-18T01:26:10.438Z,988.2
2022-11-18T01:27:04.152Z,988.3
2022-11-18T01:28:04.159Z,988.3
2022-11-18T01:29:04.142Z,988.3
2022-11-18T01:30:04.200Z,988.3
2022-11-18T01:31:04.173Z,988.3
2022-11-18T01:32:24.534Z,988.3
2022-11-18T01:33:04.151Z,988.3
2022-11-18T01:34:04.177Z,988.3
2022-11-18T01:35:04.140Z,988.3
2022-11-18T01:36:04.356Z,988.3
2022-11-18T01:37:04.168Z,988.3
2022-11-18T01:38:04.157Z,988.4
2022-11-18T01:39:04.147Z,988.4
2022-11-18T01:40:04.169Z,988.4
2022-11-18T01:41:04.147Z,988.4
2022-11-18T01:42:04.173Z,988.4
2022-11-18T01:43:04.172Z,988.4
2022-11-18T01:44:04.177Z,988.4
2022-11-18T01:45:04.143Z,988.4
2022-11-18T01:46:04.168Z,988.4
2022-11-18T01:47:04.163Z,988.4
2022-11-18T01:48:04.172Z,988.5
2022-11-18T01:49:04.184Z,988.5
2022-11-18T01:50:04.165Z,988.5
2022-11-18T01:51:04.178Z,988.5
2022-11-18T01:52:04.186Z,988.5
2022-11-18T01:53:04.146Z,988.5
2022-11-18T01:54:04.192Z,988.5
2022-11-18T01:55:04.181Z,988.5
2022-11-18T01:56:04.190Z,988.5
2022-11-18T01:57:04.142Z,988.5
2022-11-18T01:58:04.185Z,988.5
2022-11-18T01:59:04.187Z,988.5
2022-11-18T02:00:04.177Z,988.5
2022-11-18T02:01:04.228Z,988.5
2022-11-18T02:02:04.299Z,988.5
2022-11-18T02:03:04.140Z,988.5
2022-11-18T02:04:04.181Z,988.5
2022-11-18T02:05:04.166Z,988.5
2022-11-18T02:06:04.185Z,988.5
2022-11-18T02:07:04.213Z,988.5
2022-11-18T02:08:04.445Z,988.5
2022-11-18T02:09:04.237Z,988.5
2022-11-18T02:10:04.240Z,988.5
2022-11-18T02:11:04.194Z,988.5
2022-11-18T02:12:04.287Z,988.5
2022-11-18T02:13:04.151Z,988.5
2022-11-18T02:14:04.185Z,988.6
2022-11-18T02:15:04.157Z,988.6
2022-11-18T02:16:04.194Z,988.5
2022-11-18T02:17:04.190Z,988.6
2022-11-18T02:19:35.050Z,988.7
2022-11-18T02:20:03.767Z,988.6
2022-11-18T02:21:04.520Z,988.6
2022-11-18T02:22:03.769Z,988.6
2022-11-18T02:23:03.827Z,988.6
2022-11-18T02:24:03.747Z,988.7
2022-11-18T02:25:03.805Z,988.7
2022-11-18T02:26:03.772Z,988.7
2022-11-18T02:27:03.817Z,988.7
2022-11-18T02:28:03.874Z,988.7
2022-11-18T02:29:03.835Z,988.7
2022-11-18T02:30:03.759Z,988.7
2022-11-18T02:31:03.786Z,988.7
2022-11-18T02:32:03.746Z,988.7
2022-11-18T02:33:03.797Z,988.7
2022-11-18T02:34:03.766Z,988.7
2022-11-18T02:35:03.821Z,988.7
2022-11-18T02:36:03.745Z,988.7
2022-11-18T02:37:03.790Z,988.7
2022-11-18T02:38:03.762Z,988.7
2022-11-18T02:39:03.800Z,988.7
2022-11-18T02:40:03.770Z,988.7
2022-11-18T02:41:03.815Z,988.7
2022-11-18T02:42:03.765Z,988.6
2022-11-18T02:43:03.781Z,988.6
2022-11-18T02:44:03.766Z,988.6
2022-11-18T02:45:03.794Z,988.6
2022-11-18T02:46:03.770Z,988.6
2022-11-18T02:47:03.820Z,988.6
2022-11-18T02:48:03.760Z,988.6
2022-11-18T02:49:03.781Z,988.7
2022-11-18T02:50:03.755Z,988.7
2022-11-18T02:51:03.849Z,988.7
2022-11-18T02:52:03.854Z,988.7
2022-11-18T02:53:03.962Z,988.7
2022-11-18T02:54:03.917Z,988.7
2022-11-18T02:55:03.852Z,988.7
2022-11-18T02:56:03.901Z,988.8
2022-11-18T02:57:03.976Z,988.7
2022-11-18T02:58:03.759Z,988.8
2022-11-18T02:59:03.827Z,988.8
2022-11-18T03:00:03.768Z,988.8
2022-11-18T03:01:03.995Z,988.8
2022-11-18T03:02:03.852Z,988.8
2022-11-18T03:03:03.928Z,988.8
2022-11-18T03:04:03.879Z,988.9
2022-11-18T03:05:04.924Z,988.9
2022-11-18T03:06:03.950Z,988.9
2022-11-18T03:07:03.979Z,988.9
2022-11-18T03:08:03.765Z,988.9
2022-11-18T03:09:03.846Z,988.8
2022-11-18T03:10:03.782Z,988.9
2022-11-18T03:11:03.854Z,988.8
2022-11-18T03:12:03.925Z,988.8
2022-11-18T03:13:03.839Z,988.8
2022-11-18T03:14:04.029Z,988.8
2022-11-18T03:15:03.784Z,988.9
2022-11-18T03:16:03.790Z,988.9
2022-11-18T03:17:03.836Z,988.9
2022-11-18T03:18:03.783Z,988.9
2022-11-18T03:19:03.809Z,988.9
2022-11-18T03:20:03.865Z,989.0
2022-11-18T03:21:03.824Z,989.0
2022-11-18T03:22:03.793Z,989.0
2022-11-18T03:23:03.824Z,989.0
2022-11-18T03:24:03.822Z,989.0
2022-11-18T03:25:03.796Z,989.0
2022-11-18T03:26:03.777Z,989.0
2022-11-18T03:27:03.937Z,989.0
2022-11-18T03:28:03.845Z,989.1
2022-11-18T03:29:03.823Z,989.0
2022-11-18T03:30:03.775Z,989.1
2022-11-18T03:31:03.805Z,989.1
2022-11-18T03:32:03.783Z,989.1
2022-11-18T03:33:03.823Z,989.1
2022-11-18T03:34:03.788Z,989.1
2022-11-18T03:35:03.834Z,989.1
2022-11-18T03:36:03.796Z,989.1
2022-11-18T03:37:09.011Z,989.1
2022-11-18T03:38:03.858Z,989.1
2022-11-18T03:39:03.797Z,989.1
2022-11-18T03:40:03.842Z,989.2
2022-11-18T03:41:03.975Z,989.2
2022-11-18T03:42:03.894Z,989.2
2022-11-18T03:43:03.872Z,989.2
2022-11-18T03:44:03.840Z,989.2
2022-11-18T03:45:03.819Z,989.2
2022-11-18T03:46:03.793Z,989.2
2022-11-18T03:47:03.836Z,989.2
2022-11-18T03:48:10.481Z,989.2
2022-11-18T03:49:04.213Z,989.3
2022-11-18T03:50:04.212Z,989.3
2022-11-18T03:51:04.217Z,989.3
2022-11-18T03:52:04.199Z,989.4
2022-11-18T03:53:04.309Z,989.3
2022-11-18T03:54:04.204Z,989.3
2022-11-18T03:55:04.245Z,989.3
2022-11-18T03:56:04.210Z,989.3
2022-11-18T03:57:04.231Z,989.3
2022-11-18T03:58:04.200Z,989.4
2022-11-18T03:59:04.259Z,989.4
2022-11-18T04:00:05.251Z,989.4
2022-11-18T04:01:04.275Z,989.4
2022-11-18T04:02:04.298Z,989.3
2022-11-18T04:03:04.256Z,989.4
2022-11-18T04:04:04.206Z,989.4
2022-11-18T04:05:04.242Z,989.4
2022-11-18T04:06:04.205Z,989.4
2022-11-18T04:07:04.361Z,989.4
2022-11-18T04:08:04.210Z,989.5
2022-11-18T04:09:04.239Z,989.4
2022-11-18T04:10:04.216Z,989.4
2022-11-18T04:11:04.236Z,989.4
2022-11-18T04:12:04.201Z,989.4
2022-11-18T04:13:06.345Z,989.4
2022-11-18T04:14:04.221Z,989.4
2022-11-18T04:15:04.240Z,989.5
2022-11-18T04:16:04.199Z,989.5
2022-11-18T04:17:04.239Z,989.5
2022-11-18T04:18:04.212Z,989.5
2022-11-18T04:19:06.355Z,989.5
2022-11-18T04:20:04.212Z,989.5
2022-11-18T04:21:04.229Z,989.5
2022-11-18T04:22:04.207Z,989.5
2022-11-18T04:23:04.234Z,989.5
2022-11-18T04:24:04.271Z,989.5
2022-11-18T04:25:04.392Z,989.5
2022-11-18T04:26:04.329Z,989.5
2022-11-18T04:27:04.353Z,989.5
2022-11-18T04:28:04.775Z,989.6
2022-11-18T04:29:04.381Z,989.5
2022-11-18T04:30:04.373Z,989.5
2022-11-18T04:31:04.407Z,989.6
2022-11-18T04:32:04.222Z,989.5
2022-11-18T04:33:04.244Z,989.5
2022-11-18T04:34:04.233Z,989.6
2022-11-18T04:35:04.264Z,989.5
2022-11-18T04:36:04.256Z,989.5
2022-11-18T04:37:04.289Z,989.6
2022-11-18T04:38:05.061Z,989.6
2022-11-18T04:39:04.351Z,989.6
2022-11-18T04:40:04.218Z,989.6
2022-11-18T04:41:04.272Z,989.6
2022-11-18T04:42:04.230Z,989.6
2022-11-18T04:43:04.287Z,989.6
2022-11-18T04:44:04.232Z,989.6
2022-11-18T04:45:04.239Z,989.6
2022-11-18T04:46:04.226Z,989.6
2022-11-18T04:47:04.253Z,989.6
2022-11-18T04:49:11.594Z,989.6
2022-11-18T04:49:15.853Z,989.6
2022-11-18T04:50:04.231Z,989.7
2022-11-18T04:51:04.249Z,989.7
2022-11-18T04:52:04.220Z,989.6
2022-11-18T04:53:04.253Z,989.7
2022-11-18T04:54:04.218Z,989.7
2022-11-18T04:55:04.273Z,989.7
2022-11-18T04:56:04.221Z,989.7
2022-11-18T04:57:04.254Z,989.7
2022-11-18T04:58:04.224Z,989.8
2022-11-18T04:59:04.236Z,989.8
2022-11-18T05:00:04.228Z,989.8
2022-11-18T05:01:04.330Z,989.8
2022-11-18T05:02:04.285Z,989.8
2022-11-18T05:03:04.267Z,989.8
2022-11-18T05:04:04.219Z,989.9
2022-11-18T05:05:04.265Z,989.9
2022-11-18T05:06:04.232Z,989.9
2022-11-18T05:07:04.386Z,989.9
2022-11-18T05:08:04.234Z,989.9
2022-11-18T05:09:04.249Z,989.9
2022-11-18T05:10:04.227Z,989.9
2022-11-18T05:11:04.271Z,989.9
2022-11-18T05:12:04.243Z,989.9
2022-11-18T05:13:04.244Z,990.0
2022-11-18T05:14:04.239Z,989.9
2022-11-18T05:15:04.278Z,990.0
2022-11-18T05:16:04.228Z,990.0
2022-11-18T05:17:04.281Z,989.9
2022-11-18T05:18:04.239Z,990.0
2022-11-18T05:19:04.252Z,990.0
2022-11-18T05:20:04.219Z,990.0
2022-11-18T05:21:04.281Z,990.0
2022-11-18T05:22:04.249Z,990.1
2022-11-18T05:23:04.252Z,990.1
2022-11-18T05:24:04.242Z,990.1
2022-11-18T05:25:04.273Z,990.1
2022-11-18T05:26:04.234Z,990.1
2022-11-18T05:27:04.331Z,990.2
2022-11-18T05:28:04.258Z,990.1
2022-11-18T05:29:04.262Z,990.2
2022-11-18T05:30:04.227Z,990.1
2022-11-18T05:31:04.299Z,990.2
2022-11-18T05:32:04.233Z,990.2
2022-11-18T05:33:04.295Z,990.2
2022-11-18T05:34:04.402Z,990.2
2022-11-18T05:35:04.263Z,990.2
2022-11-18T05:36:04.240Z,990.2
2022-11-18T05:37:22.637Z,990.2
2022-11-18T05:38:04.303Z,990.2
2022-11-18T05:39:05.082Z,990.2
2022-11-18T05:40:04.297Z,990.2
2022-11-18T05:41:04.363Z,990.3
2022-11-18T05:42:04.298Z,990.3
2022-11-18T05:43:04.435Z,990.3
2022-11-18T05:44:04.345Z,990.3
2022-11-18T05:45:04.333Z,990.3
2022-11-18T05:46:04.330Z,990.3
2022-11-18T05:47:04.354Z,990.3
2022-11-18T05:48:04.572Z,990.4
2022-11-18T05:49:04.321Z,990.3
2022-11-18T05:50:04.304Z,990.3
2022-11-18T05:51:04.323Z,990.4
2022-11-18T05:52:04.341Z,990.4
2022-11-18T05:53:04.477Z,990.4
2022-11-18T05:54:04.544Z,990.4
2022-11-18T05:55:04.420Z,990.5
2022-11-18T05:56:04.305Z,990.5
2022-11-18T05:57:04.322Z,990.5
2022-11-18T05:58:04.307Z,990.5
2022-11-18T05:59:04.379Z,990.5
2022-11-18T06:00:04.305Z,990.5
2022-11-18T06:01:04.329Z,990.5
2022-11-18T06:02:04.300Z,990.5
2022-11-18T06:03:04.367Z,990.5
2022-11-18T06:04:04.321Z,990.5
2022-11-18T06:05:04.357Z,990.6
2022-11-18T06:06:04.307Z,990.6
2022-11-18T06:07:04.395Z,990.6
2022-11-18T06:08:04.308Z,990.6
2022-11-18T06:09:04.339Z,990.6
2022-11-18T06:10:06.033Z,990.6
2022-11-18T06:11:04.349Z,990.7
2022-11-18T06:12:04.316Z,990.7
2022-11-18T06:13:04.326Z,990.7
2022-11-18T06:14:04.309Z,990.7
2022-11-18T06:15:04.350Z,990.7
2022-11-18T06:16:04.306Z,990.8
2022-11-18T06:17:04.386Z,990.8
2022-11-18T06:18:04.303Z,990.8
2022-11-18T06:19:04.321Z,990.8
2022-11-18T06:20:04.338Z,990.8
2022-11-18T06:21:04.331Z,990.8
2022-11-18T06:22:05.254Z,990.8
2022-11-18T06:23:04.377Z,990.9
2022-11-18T06:25:37.131Z,991.0
2022-11-18T06:26:03.815Z,991.0
2022-11-18T06:27:03.897Z,991.0
2022-11-18T06:28:03.812Z,991.0
2022-11-18T06:29:03.866Z,991.0
2022-11-18T06:30:03.817Z,991.1
2022-11-18T06:31:03.855Z,991.0
2022-11-18T06:32:03.820Z,991.1
2022-11-18T06:33:03.883Z,991.1
2022-11-18T06:34:03.821Z,991.1
2022-11-18T06:35:03.865Z,991.1
2022-11-18T06:36:03.810Z,991.1
2022-11-18T06:37:03.842Z,991.1
2022-11-18T06:38:03.819Z,991.1
2022-11-18T06:39:03.835Z,991.1
2022-11-18T06:40:03.834Z,991.1
2022-11-18T06:41:03.972Z,991.2
2022-11-18T06:42:03.811Z,991.2
2022-11-18T06:43:03.852Z,991.2
2022-11-18T06:44:03.838Z,991.2
2022-11-18T06:45:03.962Z,991.2
2022-11-18T06:46:10.621Z,991.3
2022-11-18T06:47:04.314Z,991.3
2022-11-18T06:48:04.321Z,991.3
2022-11-18T06:49:04.264Z,991.4
2022-11-18T06:50:04.390Z,991.4
2022-11-18T06:51:04.268Z,991.4
2022-11-18T06:52:04.336Z,991.4
2022-11-18T06:53:04.331Z,991.4
2022-11-18T06:54:10.177Z,991.5
2022-11-18T06:55:04.269Z,991.5
2022-11-18T06:56:04.301Z,991.5
2022-11-18T06:57:05.290Z,991.5
2022-11-18T06:58:04.333Z,991.5
2022-11-18T06:59:04.280Z,991.5
2022-11-18T07:00:04.315Z,991.5
2022-11-18T07:01:04.287Z,991.6
2022-11-18T07:02:04.336Z,991.6
2022-11-18T07:03:04.269Z,991.6
2022-11-18T07:04:04.853Z,991.6
2022-11-18T07:05:04.277Z,991.6
2022-11-18T07:06:04.297Z,991.7
2022-11-18T07:07:04.420Z,991.7
2022-11-18T07:08:04.306Z,991.7
2022-11-18T07:09:04.279Z,991.7
2022-11-18T07:10:06.421Z,991.7
2022-11-18T07:11:04.374Z,991.8
2022-11-18T07:12:04.312Z,991.8
2022-11-18T07:13:04.299Z,991.8
2022-11-18T07:14:04.310Z,991.8
2022-11-18T07:15:04.273Z,991.8
2022-11-18T07:16:04.331Z,991.8
2022-11-18T07:17:04.277Z,991.8
2022-11-18T07:18:04.346Z,991.8
2022-11-18T07:19:04.271Z,991.8
2022-11-18T07:20:04.309Z,991.9
2022-11-18T07:21:04.302Z,991.9
2022-11-18T07:22:04.301Z,991.9
2022-11-18T07:23:04.281Z,992.0
2022-11-18T07:24:04.340Z,992.0
2022-11-18T07:25:04.283Z,992.0
2022-11-18T07:26:04.307Z,992.0
2022-11-18T07:27:04.513Z,992.0
2022-11-18T07:28:04.303Z,992.0
2022-11-18T07:29:04.283Z,992.0
2022-11-18T07:30:04.339Z,992.0
2022-11-18T07:31:04.347Z,992.1
2022-11-18T07:32:04.441Z,992.1
2022-11-18T07:33:04.281Z,992.1
2022-11-18T07:34:04.300Z,992.1
2022-11-18T07:35:04.282Z,992.2
2022-11-18T07:36:04.302Z,992.2
2022-11-18T07:37:04.315Z,992.2
2022-11-18T07:38:04.282Z,992.2
2022-11-18T07:39:04.324Z,992.2
2022-11-18T07:40:04.324Z,992.2
2022-11-18T07:41:04.338Z,992.2
2022-11-18T07:42:04.278Z,992.3
2022-11-18T07:43:04.345Z,992.3
2022-11-18T07:44:04.294Z,992.3
2022-11-18T07:45:04.323Z,992.3
2022-11-18T07:46:04.279Z,992.3
2022-11-18T07:47:04.304Z,992.3
2022-11-18T07:48:04.283Z,992.4
2022-11-18T07:50:54.443Z,992.4
2022-11-18T07:51:05.158Z,992.4
2022-11-18T07:52:04.182Z,992.4
2022-11-18T07:53:04.215Z,992.4
2022-11-18T07:54:04.224Z,992.4
2022-11-18T07:55:05.273Z,992.4
2022-11-18T07:56:04.169Z,992.4
2022-11-18T07:57:04.212Z,992.5
2022-11-18T07:58:04.205Z,992.5
2022-11-18T07:59:04.250Z,992.5
2022-11-18T08:00:04.179Z,992.5
2022-11-18T08:01:04.423Z,992.5
2022-11-18T08:02:04.200Z,992.5
2022-11-18T08:03:04.231Z,992.5
2022-11-18T08:04:04.292Z,992.5
2022-11-18T08:05:04.317Z,992.5
2022-11-18T08:06:04.195Z,992.6
2022-11-18T08:07:04.363Z,992.5
2022-11-18T08:08:04.172Z,992.7
2022-11-18T08:09:04.244Z,992.7
2022-11-18T08:10:04.238Z,992.7
2022-11-18T08:11:04.207Z,992.7
2022-11-18T08:12:04.173Z,992.7
2022-11-18T08:13:04.248Z,992.7
2022-11-18T08:14:04.186Z,992.7
2022-11-18T08:15:04.218Z,992.7
2022-11-18T08:16:10.910Z,992.8
2022-11-18T08:17:04.644Z,992.8
2022-11-18T08:18:05.822Z,992.8
2022-11-18T08:19:04.649Z,992.8
2022-11-18T08:20:04.684Z,992.9
2022-11-18T08:21:04.693Z,992.9
2022-11-18T08:22:04.614Z,992.9
2022-11-18T08:23:04.643Z,992.9
2022-11-18T08:24:04.688Z,992.9
2022-11-18T08:25:04.638Z,992.9
2022-11-18T08:26:04.618Z,992.9
2022-11-18T08:27:04.661Z,992.9
2022-11-18T08:28:04.620Z,992.9
2022-11-18T08:29:04.830Z,992.9
2022-11-18T08:30:04.667Z,992.9
2022-11-18T08:31:04.652Z,992.9
2022-11-18T08:32:04.618Z,993.0
2022-11-18T08:33:04.681Z,992.9
2022-11-18T08:34:04.651Z,993.0
2022-11-18T08:35:09.579Z,992.9
2022-11-18T08:36:04.693Z,992.9
2022-11-18T08:37:04.644Z,992.9
2022-11-18T08:38:04.628Z,992.9
2022-11-18T08:39:04.660Z,992.9
2022-11-18T08:40:04.702Z,992.9
2022-11-18T08:41:04.693Z,992.9
2022-11-18T08:42:04.709Z,992.9
2022-11-18T08:43:04.660Z,992.9
2022-11-18T08:44:04.632Z,992.9
2022-11-18T08:45:04.653Z,992.9
2022-11-18T08:46:04.634Z,992.9
2022-11-18T08:47:04.678Z,992.9
2022-11-18T08:48:04.639Z,993.0
2022-11-18T08:49:04.669Z,993.0
2022-11-18T08:50:04.680Z,993.0
2022-11-18T08:51:04.666Z,992.9
2022-11-18T08:52:04.636Z,993.0
2022-11-18T08:53:06.198Z,993.0
2022-11-18T08:54:04.631Z,993.0
2022-11-18T08:55:04.725Z,993.0
2022-11-18T08:56:04.691Z,993.0
2022-11-18T08:57:04.650Z,993.0
2022-11-18T08:58:04.677Z,993.0
2022-11-18T08:59:04.669Z,993.0
2022-11-18T09:00:04.634Z,993.1
2022-11-18T09:01:04.751Z,993.1
2022-11-18T09:02:04.739Z,993.1
2022-11-18T09:05:10.455Z,993.1
2022-11-18T09:06:04.147Z,993.1
2022-11-18T09:07:04.100Z,993.1
2022-11-18T09:08:04.050Z,993.1
2022-11-18T09:09:06.556Z,993.1
2022-11-18T09:10:04.019Z,993.1
2022-11-18T09:11:04.090Z,993.1
2022-11-18T09:12:04.034Z,993.1
2022-11-18T09:13:32.725Z,993.1
2022-11-18T09:15:11.265Z,993.1
2022-11-18T09:15:17.163Z,993.1
2022-11-18T09:16:04.051Z,993.1
2022-11-18T09:17:04.106Z,993.1
2022-11-18T09:18:04.027Z,993.2
2022-11-18T09:19:18.596Z,993.2
2022-11-18T09:20:04.018Z,993.2
2022-11-18T09:21:04.052Z,993.1
2022-11-18T09:22:04.033Z,993.2
2022-11-18T09:23:04.083Z,993.2
2022-11-18T09:24:04.040Z,993.2
2022-11-18T09:25:04.063Z,993.2
2022-11-18T09:26:04.039Z,993.2
2022-11-18T09:27:04.051Z,993.2
2022-11-18T09:28:04.041Z,993.2
2022-11-18T09:29:04.071Z,993.3
2022-11-18T09:30:04.036Z,993.2
2022-11-18T09:31:04.052Z,993.2
2022-11-18T09:32:04.036Z,993.3
2022-11-18T09:33:04.066Z,993.3
2022-11-18T09:34:04.026Z,993.3
2022-11-18T09:35:04.089Z,993.3
2022-11-18T09:36:04.037Z,993.3
2022-11-18T09:37:04.080Z,993.3
2022-11-18T09:38:04.046Z,993.3
2022-11-18T09:39:04.059Z,993.3
2022-11-18T09:40:04.061Z,993.3
2022-11-18T09:41:04.113Z,993.3
2022-11-18T09:42:04.028Z,993.3
2022-11-18T09:43:04.063Z,993.3
2022-11-18T09:44:04.044Z,993.4
2022-11-18T09:45:08.551Z,993.4
2022-11-18T09:46:04.029Z,993.4
2022-11-18T09:47:04.074Z,993.4
2022-11-18T09:48:04.033Z,993.4
2022-11-18T09:49:04.069Z,993.4
2022-11-18T09:50:20.287Z,993.4
2022-11-18T09:51:04.147Z,993.5
2022-11-18T09:52:04.028Z,993.5
2022-11-18T09:53:04.057Z,993.5
2022-11-18T09:54:04.041Z,993.5
2022-11-18T09:55:04.077Z,993.5
2022-11-18T09:56:04.090Z,993.5
2022-11-18T09:57:04.100Z,993.5
2022-11-18T09:58:04.032Z,993.5
2022-11-18T09:59:04.076Z,993.5
2022-11-18T10:00:04.041Z,993.5
2022-11-18T10:01:04.074Z,993.5
2022-11-18T10:02:04.136Z,993.5
2022-11-18T10:03:04.096Z,993.6
2022-11-18T10:04:04.044Z,993.6
2022-11-18T10:05:04.080Z,993.6
2022-11-18T10:07:48.136Z,993.6
2022-11-18T10:08:04.163Z,993.6
2022-11-18T10:09:04.196Z,993.6
2022-11-18T10:10:04.167Z,993.6
2022-11-18T10:11:04.130Z,993.6
2022-11-18T10:12:04.149Z,993.6
2022-11-18T10:13:04.136Z,993.7
2022-11-18T10:14:04.179Z,993.7
2022-11-18T10:15:04.159Z,993.6
2022-11-18T10:16:04.176Z,993.6
2022-11-18T10:17:04.131Z,993.7
2022-11-18T10:18:04.175Z,993.6
2022-11-18T10:19:04.163Z,993.7
2022-11-18T10:20:04.180Z,993.7
2022-11-18T10:21:04.204Z,993.7
2022-11-18T10:22:05.543Z,993.7
2022-11-18T10:23:04.158Z,993.7
2022-11-18T10:24:04.159Z,993.7
2022-11-18T10:25:04.159Z,993.7
2022-11-18T10:26:04.170Z,993.7
2022-11-18T10:27:04.165Z,993.7
2022-11-18T10:28:04.185Z,993.7
2022-11-18T10:29:04.146Z,993.7
2022-11-18T10:30:04.162Z,993.8
2022-11-18T10:31:04.249Z,993.7
2022-11-18T10:32:04.634Z,993.8
2022-11-18T10:33:04.176Z,993.8
2022-11-18T10:34:04.181Z,993.8
2022-11-18T10:35:04.165Z,993.8
2022-11-18T10:36:04.211Z,993.8
2022-11-18T10:37:04.148Z,993.8
2022-11-18T10:38:08.213Z,993.8
2022-11-18T10:39:04.171Z,993.8
2022-11-18T10:40:04.170Z,993.8
2022-11-18T10:41:04.158Z,993.8
2022-11-18T10:42:04.183Z,993.8
2022-11-18T10:43:04.144Z,993.9
2022-11-18T10:44:09.323Z,993.9
2022-11-18T10:45:04.185Z,993.9
2022-11-18T10:46:04.165Z,993.9
2022-11-18T10:47:04.278Z,993.9
2022-11-18T10:48:04.172Z,993.9
2022-11-18T10:49:04.150Z,993.9
2022-11-18T10:50:04.179Z,993.9
2022-11-18T10:51:04.181Z,993.9
2022-11-18T10:52:04.196Z,993.9
2022-11-18T10:53:04.146Z,993.9
2022-11-18T10:54:04.182Z,993.9
2022-11-18T10:55:04.159Z,993.9
2022-11-18T10:56:04.198Z,993.9
2022-11-18T10:57:04.191Z,993.9
2022-11-18T10:58:04.256Z,993.9
2022-11-18T10:59:04.154Z,993.8
2022-11-18T11:00:04.240Z,993.8
2022-11-18T11:01:04.150Z,993.8
2022-11-18T11:02:09.435Z,993.8
2022-11-18T11:03:04.193Z,993.8
2022-11-18T11:04:04.183Z,993.8
2022-11-18T11:05:04.159Z,993.8
2022-11-18T11:06:04.174Z,993.8
2022-11-18T11:07:04.201Z,993.8
2022-11-18T11:08:34.662Z,993.8
2022-11-18T11:09:04.261Z,993.8
2022-11-18T11:10:04.209Z,993.8
2022-11-18T11:11:04.156Z,993.8
2022-11-18T11:12:04.181Z,993.8
2022-11-18T11:13:04.152Z,993.8
2022-11-18T11:14:04.192Z,993.8
2022-11-18T11:15:04.189Z,993.8
2022-11-18T11:16:04.200Z,993.8
2022-11-18T11:17:04.211Z,993.7
2022-11-18T11:18:04.231Z,993.7
2022-11-18T11:19:04.414Z,993.7
2022-11-18T11:20:04.183Z,993.7
2022-11-18T11:21:04.343Z,993.7
2022-11-18T11:22:04.185Z,993.7
2022-11-18T11:23:04.157Z,993.8
2022-11-18T11:24:04.210Z,993.8
2022-11-18T11:25:04.159Z,993.8
2022-11-18T11:28:17.521Z,993.8
2022-11-18T11:29:04.148Z,993.8
2022-11-18T11:30:04.167Z,993.8
2022-11-18T11:31:04.153Z,993.8
2022-11-18T11:32:04.168Z,993.8
2022-11-18T11:33:09.580Z,993.8
2022-11-18T11:34:04.181Z,993.8
2022-11-18T11:35:04.167Z,993.8
2022-11-18T11:36:04.185Z,993.8
2022-11-18T11:37:04.164Z,993.9
2022-11-18T11:38:04.183Z,993.8
2022-11-18T11:39:04.792Z,993.8
2022-11-18T11:40:04.171Z,993.9
2022-11-18T11:41:04.158Z,993.9
2022-11-18T11:42:04.191Z,993.9
2022-11-18T11:43:04.155Z,993.9
2022-11-18T11:44:04.181Z,993.9
2022-11-18T11:45:04.175Z,993.9
2022-11-18T11:46:04.178Z,993.9
2022-11-18T11:47:04.163Z,993.9
2022-11-18T11:48:04.175Z,993.9
2022-11-18T11:49:04.165Z,993.9
2022-11-18T11:50:04.260Z,993.9
2022-11-18T11:51:05.296Z,993.9
2022-11-18T11:52:04.186Z,993.9
2022-11-18T11:53:04.159Z,993.9
2022-11-18T11:54:04.194Z,993.9
2022-11-18T11:55:04.163Z,993.9
2022-11-18T11:56:04.189Z,993.9
2022-11-18T11:57:04.211Z,993.9
2022-11-18T11:58:04.203Z,993.9
2022-11-18T11:59:04.160Z,993.9
2022-11-18T12:00:04.193Z,993.9
2022-11-18T12:01:04.199Z,993.9
2022-11-18T12:02:04.176Z,993.9
2022-11-18T12:03:04.238Z,993.9
2022-11-18T12:04:04.194Z,993.9
2022-11-18T12:05:04.186Z,993.9
2022-11-18T12:06:04.257Z,993.9
2022-11-18T12:07:04.251Z,993.9
2022-11-18T12:08:04.193Z,993.9
2022-11-18T12:09:05.333Z,993.9
2022-11-18T12:10:04.340Z,993.9
2022-11-18T12:11:04.274Z,993.8
2022-11-18T12:12:04.241Z,993.8
2022-11-18T12:13:04.299Z,993.9
2022-11-18T12:14:04.221Z,993.9
2022-11-18T12:15:04.178Z,993.9
2022-11-18T12:16:04.283Z,993.9
2022-11-18T12:17:04.218Z,993.9
2022-11-18T12:18:04.228Z,993.9
2022-11-18T12:19:04.232Z,993.9
2022-11-18T12:20:04.219Z,993.9
2022-11-18T12:21:04.241Z,993.9
2022-11-18T12:22:04.264Z,993.9
2022-11-18T12:23:04.211Z,993.9
2022-11-18T12:24:04.222Z,993.9
2022-11-18T12:25:04.164Z,994.0
2022-11-18T12:26:04.245Z,993.9
2022-11-18T12:27:04.242Z,993.9
2022-11-18T12:28:04.293Z,994.0
2022-11-18T12:29:04.200Z,994.1
2022-11-18T12:30:10.992Z,994.3
2022-11-18T12:31:03.739Z,994.2
2022-11-18T12:32:03.721Z,994.3
2022-11-18T12:33:03.811Z,994.3
2022-11-18T12:34:03.672Z,994.3
2022-11-18T12:35:10.424Z,994.3
2022-11-18T12:36:04.146Z,994.3
2022-11-18T12:37:04.954Z,994.2
2022-11-18T12:38:04.142Z,994.2
2022-11-18T12:39:04.183Z,994.2
2022-11-18T12:40:04.112Z,994.2
2022-11-18T12:41:04.189Z,994.2
2022-11-18T12:42:04.101Z,994.1
2022-11-18T12:43:04.692Z,994.1
2022-11-18T12:44:04.132Z,994.1
2022-11-18T12:45:04.157Z,994.1
2022-11-18T12:46:04.148Z,994.1
2022-11-18T12:47:04.178Z,994.1
2022-11-18T12:48:04.172Z,994.1
2022-11-18T12:49:04.174Z,994.1
2022-11-18T12:50:04.118Z,994.2
2022-11-18T12:51:04.176Z,994.1
2022-11-18T12:52:04.144Z,994.1
2022-11-18T12:53:04.361Z,994.1
2022-11-18T12:54:04.143Z,994.1
2022-11-18T12:55:04.182Z,994.2
2022-11-18T12:56:04.217Z,994.1
2022-11-18T12:57:04.697Z,994.2
2022-11-18T12:58:04.654Z,994.2
2022-11-18T12:59:04.156Z,994.2
2022-11-18T13:00:04.086Z,994.2
2022-11-18T13:01:04.196Z,994.2